sensor_id;sensor_type;location;lat;lon;timestamp;temperature;humidity
52125;DHT22;38119;52.710;6.398;2022-07-23T00:00:36;15.30;99.90
52125;DHT22;38119;52.710;6.398;2022-07-23T00:03:02;15.30;99.90
52125;DHT22;38119;52.710;6.398;2022-07-23T00:05:27;15.40;99.90
52125;DHT22;38119;52.710;6.398;2022-07-23T00:07:53;15.20;99.90
52125;DHT22;38119;52.710;6.398;2022-07-23T00:10:19;15.20;99.90
52125;DHT22;38119;52.710;6.398;2022-07-23T00:12:44;15.10;99.90
52125;DHT22;38119;52.710;6.398;2022-07-23T00:15:10;15.10;99.90
52125;DHT22;38119;52.710;6.398;2022-07-23T00:17:36;15.10;99.90
52125;DHT22;38119;52.710;6.398;2022-07-23T00:20:02;15.10;99.90
52125;DHT22;38119;52.710;6.398;2022-07-23T00:22:28;15.10;99.90
52125;DHT22;38119;52.710;6.398;2022-07-23T00:24:55;15.10;99.90
52125;DHT22;38119;52.710;6.398;2022-07-23T00:27:21;15.10;99.90
52125;DHT22;38119;52.710;6.398;2022-07-23T00:29:46;15.10;99.90
52125;DHT22;38119;52.710;6.398;2022-07-23T00:32:12;15.00;99.90
52125;DHT22;38119;52.710;6.398;2022-07-23T00:34:37;15.00;99.90
52125;DHT22;38119;52.710;6.398;2022-07-23T00:37:03;15.00;99.90
52125;DHT22;38119;52.710;6.398;2022-07-23T00:39:29;14.90;99.90
52125;DHT22;38119;52.710;6.398;2022-07-23T00:41:54;14.90;99.90
52125;DHT22;38119;52.710;6.398;2022-07-23T00:44:25;15.00;99.90
52125;DHT22;38119;52.710;6.398;2022-07-23T00:47:00;14.80;99.90
52125;DHT22;38119;52.710;6.398;2022-07-23T00:49:28;14.80;99.90
52125;DHT22;38119;52.710;6.398;2022-07-23T00:51:54;14.80;99.90
52125;DHT22;38119;52.710;6.398;2022-07-23T00:54:22;14.70;99.90
52125;DHT22;38119;52.710;6.398;2022-07-23T00:56:48;14.80;99.90
52125;DHT22;38119;52.710;6.398;2022-07-23T00:59:14;14.60;99.90
52125;DHT22;38119;52.710;6.398;2022-07-23T01:01:40;14.60;99.90
52125;DHT22;38119;52.710;6.398;2022-07-23T01:04:07;14.60;99.90
52125;DHT22;38119;52.710;6.398;2022-07-23T01:06:37;15.00;99.90
52125;DHT22;38119;52.710;6.398;2022-07-23T01:09:05;14.50;99.90
52125;DHT22;38119;52.710;6.398;2022-07-23T01:11:35;14.50;99.90
52125;DHT22;38119;52.710;6.398;2022-07-23T01:14:17;14.50;99.90
52125;DHT22;38119;52.710;6.398;2022-07-23T01:16:44;14.50;99.90
52125;DHT22;38119;52.710;6.398;2022-07-23T01:19:10;14.40;99.90
52125;DHT22;38119;52.710;6.398;2022-07-23T01:21:39;14.40;99.90
52125;DHT22;38119;52.710;6.398;2022-07-23T01:24:05;14.40;99.90
52125;DHT22;38119;52.710;6.398;2022-07-23T01:26:31;14.40;99.90
52125;DHT22;38119;52.710;6.398;2022-07-23T01:28:57;14.30;99.90
52125;DHT22;38119;52.710;6.398;2022-07-23T01:31:23;14.30;99.90
52125;DHT22;38119;52.710;6.398;2022-07-23T01:33:48;14.30;99.90
52125;DHT22;38119;52.710;6.398;2022-07-23T01:36:14;14.30;99.90
52125;DHT22;38119;52.710;6.398;2022-07-23T01:38:40;14.20;99.90
52125;DHT22;38119;52.710;6.398;2022-07-23T01:41:05;14.20;99.90
52125;DHT22;38119;52.710;6.398;2022-07-23T01:43:31;14.20;99.90
52125;DHT22;38119;52.710;6.398;2022-07-23T01:45:57;14.10;99.90
52125;DHT22;38119;52.710;6.398;2022-07-23T01:48:22;14.10;99.90
52125;DHT22;38119;52.710;6.398;2022-07-23T01:50:48;14.10;99.90
52125;DHT22;38119;52.710;6.398;2022-07-23T01:53:14;14.00;99.90
52125;DHT22;38119;52.710;6.398;2022-07-23T01:55:41;13.90;99.90
52125;DHT22;38119;52.710;6.398;2022-07-23T01:58:07;14.20;99.90
52125;DHT22;38119;52.710;6.398;2022-07-23T02:00:32;13.90;99.90
52125;DHT22;38119;52.710;6.398;2022-07-23T02:02:58;13.90;99.90
52125;DHT22;38119;52.710;6.398;2022-07-23T02:05:25;14.10;99.90
52125;DHT22;38119;52.710;6.398;2022-07-23T02:07:51;13.90;99.90
52125;DHT22;38119;52.710;6.398;2022-07-23T02:10:17;14.00;99.90
52125;DHT22;38119;52.710;6.398;2022-07-23T02:12:43;13.80;99.90
52125;DHT22;38119;52.710;6.398;2022-07-23T02:15:09;13.80;99.90
52125;DHT22;38119;52.710;6.398;2022-07-23T02:17:35;13.80;99.90
52125;DHT22;38119;52.710;6.398;2022-07-23T02:20:01;13.70;99.90
52125;DHT22;38119;52.710;6.398;2022-07-23T02:22:27;13.70;99.90
52125;DHT22;38119;52.710;6.398;2022-07-23T02:24:53;13.70;99.90
52125;DHT22;38119;52.710;6.398;2022-07-23T02:27:18;13.80;99.90
52125;DHT22;38119;52.710;6.398;2022-07-23T02:29:44;13.70;99.90
52125;DHT22;38119;52.710;6.398;2022-07-23T02:32:09;13.60;99.90
52125;DHT22;38119;52.710;6.398;2022-07-23T02:34:35;13.60;99.90
52125;DHT22;38119;52.710;6.398;2022-07-23T02:37:01;13.60;99.90
52125;DHT22;38119;52.710;6.398;2022-07-23T02:39:27;13.60;99.90
52125;DHT22;38119;52.710;6.398;2022-07-23T02:41:53;13.60;99.90
52125;DHT22;38119;52.710;6.398;2022-07-23T02:44:18;13.70;99.90
52125;DHT22;38119;52.710;6.398;2022-07-23T02:46:44;13.50;99.90
52125;DHT22;38119;52.710;6.398;2022-07-23T02:49:10;13.50;99.90
52125;DHT22;38119;52.710;6.398;2022-07-23T02:51:35;13.50;99.90
52125;DHT22;38119;52.710;6.398;2022-07-23T02:54:01;13.40;99.90
52125;DHT22;38119;52.710;6.398;2022-07-23T02:56:26;13.40;99.90
52125;DHT22;38119;52.710;6.398;2022-07-23T02:58:52;13.40;99.90
52125;DHT22;38119;52.710;6.398;2022-07-23T03:01:18;13.30;99.90
52125;DHT22;38119;52.710;6.398;2022-07-23T03:03:43;13.30;99.90
52125;DHT22;38119;52.710;6.398;2022-07-23T03:06:09;13.40;99.90
52125;DHT22;38119;52.710;6.398;2022-07-23T03:08:35;13.30;99.90
52125;DHT22;38119;52.710;6.398;2022-07-23T03:11:00;13.20;99.90
52125;DHT22;38119;52.710;6.398;2022-07-23T03:13:26;13.20;99.90
52125;DHT22;38119;52.710;6.398;2022-07-23T03:15:51;13.60;99.90
52125;DHT22;38119;52.710;6.398;2022-07-23T03:18:17;13.20;99.90
52125;DHT22;38119;52.710;6.398;2022-07-23T03:20:43;13.10;99.90
52125;DHT22;38119;52.710;6.398;2022-07-23T03:23:08;13.20;99.90
52125;DHT22;38119;52.710;6.398;2022-07-23T03:25:34;13.10;99.90
52125;DHT22;38119;52.710;6.398;2022-07-23T03:27:59;13.10;99.90
52125;DHT22;38119;52.710;6.398;2022-07-23T03:30:25;13.10;99.90
52125;DHT22;38119;52.710;6.398;2022-07-23T03:32:50;13.10;99.90
52125;DHT22;38119;52.710;6.398;2022-07-23T03:35:16;13.10;99.90
52125;DHT22;38119;52.710;6.398;2022-07-23T03:37:42;13.30;99.90
52125;DHT22;38119;52.710;6.398;2022-07-23T03:40:08;13.30;99.90
52125;DHT22;38119;52.710;6.398;2022-07-23T03:42:33;13.00;99.90
52125;DHT22;38119;52.710;6.398;2022-07-23T03:44:59;13.00;99.90
52125;DHT22;38119;52.710;6.398;2022-07-23T03:47:26;12.90;99.90
52125;DHT22;38119;52.710;6.398;2022-07-23T03:49:51;12.90;99.90
52125;DHT22;38119;52.710;6.398;2022-07-23T03:52:17;13.10;99.90
52125;DHT22;38119;52.710;6.398;2022-07-23T03:54:42;13.20;99.90
52125;DHT22;38119;52.710;6.398;2022-07-23T03:57:08;12.80;99.90
52125;DHT22;38119;52.710;6.398;2022-07-23T03:59:34;12.90;99.90
52125;DHT22;38119;52.710;6.398;2022-07-23T04:01:59;12.80;99.90
52125;DHT22;38119;52.710;6.398;2022-07-23T04:04:25;12.80;99.90
52125;DHT22;38119;52.710;6.398;2022-07-23T04:06:50;12.70;99.90
52125;DHT22;38119;52.710;6.398;2022-07-23T04:09:16;12.80;99.90
52125;DHT22;38119;52.710;6.398;2022-07-23T04:11:41;12.70;99.90
52125;DHT22;38119;52.710;6.398;2022-07-23T04:14:08;12.70;99.90
52125;DHT22;38119;52.710;6.398;2022-07-23T04:16:33;12.70;99.90
52125;DHT22;38119;52.710;6.398;2022-07-23T04:18:59;12.60;99.90
52125;DHT22;38119;52.710;6.398;2022-07-23T04:21:25;12.80;99.90
52125;DHT22;38119;52.710;6.398;2022-07-23T04:23:51;12.70;99.90
52125;DHT22;38119;52.710;6.398;2022-07-23T04:26:16;12.80;99.90
52125;DHT22;38119;52.710;6.398;2022-07-23T04:28:42;12.70;99.90
52125;DHT22;38119;52.710;6.398;2022-07-23T04:31:08;12.80;99.90
52125;DHT22;38119;52.710;6.398;2022-07-23T04:33:33;12.70;99.90
52125;DHT22;38119;52.710;6.398;2022-07-23T04:35:59;12.70;99.90
52125;DHT22;38119;52.710;6.398;2022-07-23T04:38:25;12.80;99.90
52125;DHT22;38119;52.710;6.398;2022-07-23T04:40:50;12.80;99.90
52125;DHT22;38119;52.710;6.398;2022-07-23T04:43:16;12.80;99.90
52125;DHT22;38119;52.710;6.398;2022-07-23T04:45:41;12.90;99.90
52125;DHT22;38119;52.710;6.398;2022-07-23T04:48:07;12.90;99.90
52125;DHT22;38119;52.710;6.398;2022-07-23T04:50:33;12.90;99.90
52125;DHT22;38119;52.710;6.398;2022-07-23T04:52:58;12.90;99.90
52125;DHT22;38119;52.710;6.398;2022-07-23T04:55:24;12.90;99.90
52125;DHT22;38119;52.710;6.398;2022-07-23T04:57:50;13.00;99.90
52125;DHT22;38119;52.710;6.398;2022-07-23T05:00:15;13.00;99.90
52125;DHT22;38119;52.710;6.398;2022-07-23T05:02:41;13.00;99.90
52125;DHT22;38119;52.710;6.398;2022-07-23T05:05:07;13.00;99.90
52125;DHT22;38119;52.710;6.398;2022-07-23T05:07:33;13.00;99.90
52125;DHT22;38119;52.710;6.398;2022-07-23T05:09:58;13.10;99.90
52125;DHT22;38119;52.710;6.398;2022-07-23T05:12:24;13.10;99.90
52125;DHT22;38119;52.710;6.398;2022-07-23T05:14:50;13.10;99.90
52125;DHT22;38119;52.710;6.398;2022-07-23T05:17:15;13.20;99.90
52125;DHT22;38119;52.710;6.398;2022-07-23T05:19:41;13.10;99.90
52125;DHT22;38119;52.710;6.398;2022-07-23T05:22:06;13.20;99.90
52125;DHT22;38119;52.710;6.398;2022-07-23T05:24:32;13.20;99.90
52125;DHT22;38119;52.710;6.398;2022-07-23T05:26:58;13.30;99.90
52125;DHT22;38119;52.710;6.398;2022-07-23T05:29:23;13.30;99.90
52125;DHT22;38119;52.710;6.398;2022-07-23T05:31:49;13.80;99.90
52125;DHT22;38119;52.710;6.398;2022-07-23T05:34:15;13.30;99.90
52125;DHT22;38119;52.710;6.398;2022-07-23T05:36:40;13.40;99.90
52125;DHT22;38119;52.710;6.398;2022-07-23T05:39:06;13.80;99.90
52125;DHT22;38119;52.710;6.398;2022-07-23T05:41:32;14.00;99.90
52125;DHT22;38119;52.710;6.398;2022-07-23T05:43:57;13.60;99.90
52125;DHT22;38119;52.710;6.398;2022-07-23T05:46:23;13.50;99.90
52125;DHT22;38119;52.710;6.398;2022-07-23T05:48:49;13.50;99.90
52125;DHT22;38119;52.710;6.398;2022-07-23T05:51:24;13.70;99.90
52125;DHT22;38119;52.710;6.398;2022-07-23T05:53:50;13.60;99.90
52125;DHT22;38119;52.710;6.398;2022-07-23T05:56:17;13.70;99.90
52125;DHT22;38119;52.710;6.398;2022-07-23T05:58:43;14.20;99.90
52125;DHT22;38119;52.710;6.398;2022-07-23T06:01:09;13.80;99.90
52125;DHT22;38119;52.710;6.398;2022-07-23T06:03:35;13.90;99.90
52125;DHT22;38119;52.710;6.398;2022-07-23T06:06:00;14.20;99.90
52125;DHT22;38119;52.710;6.398;2022-07-23T06:08:26;14.00;99.90
52125;DHT22;38119;52.710;6.398;2022-07-23T06:10:52;14.00;99.90
52125;DHT22;38119;52.710;6.398;2022-07-23T06:13:18;14.20;99.90
52125;DHT22;38119;52.710;6.398;2022-07-23T06:15:44;14.20;99.90
52125;DHT22;38119;52.710;6.398;2022-07-23T06:18:09;14.50;99.90
52125;DHT22;38119;52.710;6.398;2022-07-23T06:20:35;14.20;99.90
52125;DHT22;38119;52.710;6.398;2022-07-23T06:23:01;14.20;99.90
52125;DHT22;38119;52.710;6.398;2022-07-23T06:25:26;14.60;99.90
52125;DHT22;38119;52.710;6.398;2022-07-23T06:27:52;14.30;99.90
52125;DHT22;38119;52.710;6.398;2022-07-23T06:30:18;14.40;99.90
52125;DHT22;38119;52.710;6.398;2022-07-23T06:32:45;14.40;99.90
52125;DHT22;38119;52.710;6.398;2022-07-23T06:35:10;14.40;99.90
52125;DHT22;38119;52.710;6.398;2022-07-23T06:37:36;14.60;99.90
52125;DHT22;38119;52.710;6.398;2022-07-23T06:40:03;14.50;99.90
52125;DHT22;38119;52.710;6.398;2022-07-23T06:42:28;14.60;99.90
52125;DHT22;38119;52.710;6.398;2022-07-23T06:44:54;14.60;99.90
52125;DHT22;38119;52.710;6.398;2022-07-23T06:47:22;14.70;99.90
52125;DHT22;38119;52.710;6.398;2022-07-23T06:49:48;14.90;99.90
52125;DHT22;38119;52.710;6.398;2022-07-23T06:52:14;14.80;99.90
52125;DHT22;38119;52.710;6.398;2022-07-23T06:54:39;14.90;99.90
52125;DHT22;38119;52.710;6.398;2022-07-23T06:57:05;14.90;99.90
52125;DHT22;38119;52.710;6.398;2022-07-23T06:59:31;14.90;99.90
52125;DHT22;38119;52.710;6.398;2022-07-23T07:01:56;14.90;99.90
52125;DHT22;38119;52.710;6.398;2022-07-23T07:04:24;15.10;99.90
52125;DHT22;38119;52.710;6.398;2022-07-23T07:06:50;15.00;99.90
52125;DHT22;38119;52.710;6.398;2022-07-23T07:09:15;15.00;99.90
52125;DHT22;38119;52.710;6.398;2022-07-23T07:11:41;15.10;99.90
52125;DHT22;38119;52.710;6.398;2022-07-23T07:14:07;15.20;99.90
52125;DHT22;38119;52.710;6.398;2022-07-23T07:16:32;15.20;99.90
52125;DHT22;38119;52.710;6.398;2022-07-23T07:18:58;15.20;99.90
52125;DHT22;38119;52.710;6.398;2022-07-23T07:21:23;15.40;99.90
52125;DHT22;38119;52.710;6.398;2022-07-23T07:23:49;15.30;99.90
52125;DHT22;38119;52.710;6.398;2022-07-23T07:26:15;15.40;99.90
52125;DHT22;38119;52.710;6.398;2022-07-23T07:28:40;15.60;99.90
52125;DHT22;38119;52.710;6.398;2022-07-23T07:31:08;15.50;99.90
52125;DHT22;38119;52.710;6.398;2022-07-23T07:33:33;15.60;99.90
52125;DHT22;38119;52.710;6.398;2022-07-23T07:35:59;15.60;99.90
52125;DHT22;38119;52.710;6.398;2022-07-23T07:38:26;15.60;99.90
52125;DHT22;38119;52.710;6.398;2022-07-23T07:40:51;15.70;99.90
52125;DHT22;38119;52.710;6.398;2022-07-23T07:43:17;15.70;99.90
52125;DHT22;38119;52.710;6.398;2022-07-23T07:45:42;15.80;99.90
52125;DHT22;38119;52.710;6.398;2022-07-23T07:48:08;15.80;99.90
52125;DHT22;38119;52.710;6.398;2022-07-23T07:50:34;15.90;99.90
52125;DHT22;38119;52.710;6.398;2022-07-23T07:52:59;16.00;99.90
52125;DHT22;38119;52.710;6.398;2022-07-23T07:55:25;16.10;99.90
52125;DHT22;38119;52.710;6.398;2022-07-23T07:57:52;16.20;99.90
52125;DHT22;38119;52.710;6.398;2022-07-23T08:00:18;16.30;99.90
52125;DHT22;38119;52.710;6.398;2022-07-23T08:02:48;16.40;99.90
52125;DHT22;38119;52.710;6.398;2022-07-23T08:05:14;16.60;99.90
52125;DHT22;38119;52.710;6.398;2022-07-23T08:07:43;16.70;99.90
52125;DHT22;38119;52.710;6.398;2022-07-23T08:10:10;16.80;99.90
52125;DHT22;38119;52.710;6.398;2022-07-23T08:12:47;17.00;99.90
52125;DHT22;38119;52.710;6.398;2022-07-23T08:15:15;17.10;99.90
52125;DHT22;38119;52.710;6.398;2022-07-23T08:17:42;17.10;99.90
52125;DHT22;38119;52.710;6.398;2022-07-23T08:20:10;17.10;99.90
52125;DHT22;38119;52.710;6.398;2022-07-23T08:25:24;17.20;99.90
52125;DHT22;38119;52.710;6.398;2022-07-23T08:27:50;17.30;99.90
52125;DHT22;38119;52.710;6.398;2022-07-23T08:30:16;17.40;99.90
52125;DHT22;38119;52.710;6.398;2022-07-23T08:33:03;17.50;99.90
52125;DHT22;38119;52.710;6.398;2022-07-23T08:35:39;17.50;99.90
52125;DHT22;38119;52.710;6.398;2022-07-23T08:38:11;17.60;99.90
52125;DHT22;38119;52.710;6.398;2022-07-23T08:40:40;17.60;99.90
52125;DHT22;38119;52.710;6.398;2022-07-23T08:43:11;17.60;99.90
52125;DHT22;38119;52.710;6.398;2022-07-23T08:45:39;17.70;99.90
52125;DHT22;38119;52.710;6.398;2022-07-23T08:48:08;17.80;99.90
52125;DHT22;38119;52.710;6.398;2022-07-23T08:50:35;17.90;99.90
52125;DHT22;38119;52.710;6.398;2022-07-23T08:53:02;17.90;99.90
52125;DHT22;38119;52.710;6.398;2022-07-23T08:55:30;18.00;99.90
52125;DHT22;38119;52.710;6.398;2022-07-23T08:57:56;18.00;99.90
52125;DHT22;38119;52.710;6.398;2022-07-23T09:00:22;18.00;99.90
52125;DHT22;38119;52.710;6.398;2022-07-23T09:02:48;18.10;99.90
52125;DHT22;38119;52.710;6.398;2022-07-23T09:05:15;18.30;99.90
52125;DHT22;38119;52.710;6.398;2022-07-23T09:08:06;18.30;99.90
52125;DHT22;38119;52.710;6.398;2022-07-23T09:13:39;18.40;99.90
52125;DHT22;38119;52.710;6.398;2022-07-23T09:18:34;19.10;99.90
52125;DHT22;38119;52.710;6.398;2022-07-23T09:23:43;19.80;99.90
52125;DHT22;38119;52.710;6.398;2022-07-23T09:26:29;20.20;99.90
52125;DHT22;38119;52.710;6.398;2022-07-23T09:31:41;20.90;99.90
52125;DHT22;38119;52.710;6.398;2022-07-23T09:36:40;21.20;99.90
52125;DHT22;38119;52.710;6.398;2022-07-23T09:39:07;21.10;99.90
52125;DHT22;38119;52.710;6.398;2022-07-23T09:41:41;21.00;99.90
52125;DHT22;38119;52.710;6.398;2022-07-23T09:44:15;20.90;99.90
52125;DHT22;38119;52.710;6.398;2022-07-23T09:46:42;21.20;99.90
52125;DHT22;38119;52.710;6.398;2022-07-23T09:49:20;21.40;99.90
52125;DHT22;38119;52.710;6.398;2022-07-23T09:51:58;21.60;99.90
52125;DHT22;38119;52.710;6.398;2022-07-23T09:54:38;21.80;99.90
52125;DHT22;38119;52.710;6.398;2022-07-23T09:59:36;22.40;99.70
52125;DHT22;38119;52.710;6.398;2022-07-23T10:02:03;22.60;99.20
52125;DHT22;38119;52.710;6.398;2022-07-23T10:04:31;22.80;99.30
52125;DHT22;38119;52.710;6.398;2022-07-23T10:06:59;22.80;98.00
52125;DHT22;38119;52.710;6.398;2022-07-23T10:09:31;22.60;96.90
52125;DHT22;38119;52.710;6.398;2022-07-23T10:12:04;22.40;96.50
52125;DHT22;38119;52.710;6.398;2022-07-23T10:14:33;22.20;96.70
52125;DHT22;38119;52.710;6.398;2022-07-23T10:17:03;22.10;97.00
52125;DHT22;38119;52.710;6.398;2022-07-23T10:19:31;22.10;96.70
52125;DHT22;38119;52.710;6.398;2022-07-23T10:22:03;22.20;96.90
52125;DHT22;38119;52.710;6.398;2022-07-23T10:24:34;22.40;97.40
52125;DHT22;38119;52.710;6.398;2022-07-23T10:30:18;22.60;93.50
52125;DHT22;38119;52.710;6.398;2022-07-23T10:38:54;22.90;95.00
52125;DHT22;38119;52.710;6.398;2022-07-23T10:41:51;22.80;94.90
52125;DHT22;38119;52.710;6.398;2022-07-23T10:44:20;22.90;94.80
52125;DHT22;38119;52.710;6.398;2022-07-23T10:47:04;23.00;95.50
52125;DHT22;38119;52.710;6.398;2022-07-23T10:49:34;23.20;93.80
52125;DHT22;38119;52.710;6.398;2022-07-23T10:54:41;23.70;93.60
52125;DHT22;38119;52.710;6.398;2022-07-23T10:57:08;23.70;94.10
52125;DHT22;38119;52.710;6.398;2022-07-23T11:02:24;24.00;91.50
52125;DHT22;38119;52.710;6.398;2022-07-23T11:04:52;23.90;92.40
52125;DHT22;38119;52.710;6.398;2022-07-23T11:07:18;23.80;91.90
52125;DHT22;38119;52.710;6.398;2022-07-23T11:09:44;23.60;92.00
52125;DHT22;38119;52.710;6.398;2022-07-23T11:15:09;22.90;91.60
52125;DHT22;38119;52.710;6.398;2022-07-23T11:22:48;22.80;92.80
52125;DHT22;38119;52.710;6.398;2022-07-23T11:25:29;22.90;92.80
52125;DHT22;38119;52.710;6.398;2022-07-23T11:28:08;22.90;92.30
52125;DHT22;38119;52.710;6.398;2022-07-23T11:35:33;22.80;93.70
52125;DHT22;38119;52.710;6.398;2022-07-23T11:38:14;23.00;94.00
52125;DHT22;38119;52.710;6.398;2022-07-23T11:40:43;23.10;93.60
52125;DHT22;38119;52.710;6.398;2022-07-23T11:43:10;23.20;93.40
52125;DHT22;38119;52.710;6.398;2022-07-23T11:45:39;23.20;92.50
52125;DHT22;38119;52.710;6.398;2022-07-23T11:48:07;23.10;92.70
52125;DHT22;38119;52.710;6.398;2022-07-23T11:50:33;23.10;92.90
52125;DHT22;38119;52.710;6.398;2022-07-23T11:53:00;23.30;93.30
52125;DHT22;38119;52.710;6.398;2022-07-23T11:55:28;23.70;93.50
52125;DHT22;38119;52.710;6.398;2022-07-23T11:57:54;24.20;93.40
52125;DHT22;38119;52.710;6.398;2022-07-23T12:00:22;24.30;92.90
52125;DHT22;38119;52.710;6.398;2022-07-23T12:02:51;24.30;92.40
52125;DHT22;38119;52.710;6.398;2022-07-23T12:05:24;24.10;92.20
52125;DHT22;38119;52.710;6.398;2022-07-23T12:07:52;24.20;92.20
52125;DHT22;38119;52.710;6.398;2022-07-23T12:12:49;24.80;91.50
52125;DHT22;38119;52.710;6.398;2022-07-23T12:15:17;25.00;91.80
52125;DHT22;38119;52.710;6.398;2022-07-23T12:17:47;25.20;90.20
52125;DHT22;38119;52.710;6.398;2022-07-23T12:20:15;25.20;90.10
52125;DHT22;38119;52.710;6.398;2022-07-23T12:22:44;25.20;90.30
52125;DHT22;38119;52.710;6.398;2022-07-23T12:25:21;25.30;89.70
52125;DHT22;38119;52.710;6.398;2022-07-23T12:28:02;25.30;89.40
52125;DHT22;38119;52.710;6.398;2022-07-23T12:33:09;25.30;87.40
52125;DHT22;38119;52.710;6.398;2022-07-23T12:35:43;25.30;89.70
52125;DHT22;38119;52.710;6.398;2022-07-23T12:38:18;25.50;89.60
52125;DHT22;38119;52.710;6.398;2022-07-23T12:40:58;25.60;87.50
52125;DHT22;38119;52.710;6.398;2022-07-23T12:43:30;25.60;87.10
52125;DHT22;38119;52.710;6.398;2022-07-23T12:46:10;25.50;86.50
52125;DHT22;38119;52.710;6.398;2022-07-23T12:51:18;25.60;88.00
52125;DHT22;38119;52.710;6.398;2022-07-23T12:53:47;25.60;85.60
52125;DHT22;38119;52.710;6.398;2022-07-23T12:56:26;25.40;86.70
52125;DHT22;38119;52.710;6.398;2022-07-23T12:58:56;25.20;86.50
52125;DHT22;38119;52.710;6.398;2022-07-23T13:04:02;25.40;87.40
52125;DHT22;38119;52.710;6.398;2022-07-23T13:06:30;25.40;85.20
52125;DHT22;38119;52.710;6.398;2022-07-23T13:08:57;25.20;85.40
52125;DHT22;38119;52.710;6.398;2022-07-23T13:11:23;25.00;84.90
52125;DHT22;38119;52.710;6.398;2022-07-23T13:13:49;24.80;85.30
52125;DHT22;38119;52.710;6.398;2022-07-23T13:16:16;24.80;86.00
52125;DHT22;38119;52.710;6.398;2022-07-23T13:18:41;24.80;86.90
52125;DHT22;38119;52.710;6.398;2022-07-23T13:21:08;25.00;86.60
52125;DHT22;38119;52.710;6.398;2022-07-23T13:23:34;24.90;86.00
52125;DHT22;38119;52.710;6.398;2022-07-23T13:25:59;24.80;86.50
52125;DHT22;38119;52.710;6.398;2022-07-23T13:28:25;24.80;87.30
52125;DHT22;38119;52.710;6.398;2022-07-23T13:30:52;24.80;87.60
52125;DHT22;38119;52.710;6.398;2022-07-23T13:33:23;24.70;87.40
52125;DHT22;38119;52.710;6.398;2022-07-23T13:35:50;24.90;88.40
52125;DHT22;38119;52.710;6.398;2022-07-23T13:38:19;25.00;88.60
52125;DHT22;38119;52.710;6.398;2022-07-23T13:40:47;25.20;88.60
52125;DHT22;38119;52.710;6.398;2022-07-23T13:43:16;25.30;88.50
52125;DHT22;38119;52.710;6.398;2022-07-23T13:45:42;25.20;87.90
52125;DHT22;38119;52.710;6.398;2022-07-23T13:48:10;25.10;87.70
52125;DHT22;38119;52.710;6.398;2022-07-23T13:50:36;25.00;86.50
52125;DHT22;38119;52.710;6.398;2022-07-23T13:53:08;24.90;86.70
52125;DHT22;38119;52.710;6.398;2022-07-23T13:55:39;25.00;88.00
52125;DHT22;38119;52.710;6.398;2022-07-23T13:58:06;25.10;88.10
52125;DHT22;38119;52.710;6.398;2022-07-23T14:00:34;25.30;88.10
52125;DHT22;38119;52.710;6.398;2022-07-23T14:03:05;25.50;87.30
52125;DHT22;38119;52.710;6.398;2022-07-23T14:05:32;25.40;86.10
52125;DHT22;38119;52.710;6.398;2022-07-23T14:07:58;25.30;86.40
52125;DHT22;38119;52.710;6.398;2022-07-23T14:10:24;25.40;86.90
52125;DHT22;38119;52.710;6.398;2022-07-23T14:12:51;25.50;87.20
52125;DHT22;38119;52.710;6.398;2022-07-23T14:15:18;25.60;86.70
52125;DHT22;38119;52.710;6.398;2022-07-23T14:17:45;25.50;85.50
52125;DHT22;38119;52.710;6.398;2022-07-23T14:20:17;25.40;85.10
52125;DHT22;38119;52.710;6.398;2022-07-23T14:22:43;25.40;85.20
52125;DHT22;38119;52.710;6.398;2022-07-23T14:25:10;25.40;85.50
52125;DHT22;38119;52.710;6.398;2022-07-23T14:27:36;25.40;85.70
52125;DHT22;38119;52.710;6.398;2022-07-23T14:30:06;25.40;85.60
52125;DHT22;38119;52.710;6.398;2022-07-23T14:32:35;25.50;86.00
52125;DHT22;38119;52.710;6.398;2022-07-23T14:35:01;25.70;86.00
52125;DHT22;38119;52.710;6.398;2022-07-23T14:37:27;25.80;85.70
52125;DHT22;38119;52.710;6.398;2022-07-23T14:39:53;25.90;85.70
52125;DHT22;38119;52.710;6.398;2022-07-23T14:42:19;25.80;83.40
52125;DHT22;38119;52.710;6.398;2022-07-23T14:44:45;25.70;83.00
52125;DHT22;38119;52.710;6.398;2022-07-23T14:47:13;25.60;83.50
52125;DHT22;38119;52.710;6.398;2022-07-23T14:49:39;25.40;83.30
52125;DHT22;38119;52.710;6.398;2022-07-23T14:52:05;25.30;84.40
52125;DHT22;38119;52.710;6.398;2022-07-23T14:54:31;25.30;84.90
52125;DHT22;38119;52.710;6.398;2022-07-23T14:56:57;25.30;84.60
52125;DHT22;38119;52.710;6.398;2022-07-23T14:59:26;25.30;85.10
52125;DHT22;38119;52.710;6.398;2022-07-23T15:01:52;25.20;84.90
52125;DHT22;38119;52.710;6.398;2022-07-23T15:04:18;25.20;84.60
52125;DHT22;38119;52.710;6.398;2022-07-23T15:06:45;25.10;85.00
52125;DHT22;38119;52.710;6.398;2022-07-23T15:09:11;25.10;85.70
52125;DHT22;38119;52.710;6.398;2022-07-23T15:11:37;25.20;86.00
52125;DHT22;38119;52.710;6.398;2022-07-23T15:14:07;25.30;86.60
52125;DHT22;38119;52.710;6.398;2022-07-23T15:16:33;25.30;85.60
52125;DHT22;38119;52.710;6.398;2022-07-23T15:19:00;25.30;85.70
52125;DHT22;38119;52.710;6.398;2022-07-23T15:21:27;25.30;85.30
52125;DHT22;38119;52.710;6.398;2022-07-23T15:23:55;25.20;85.10
52125;DHT22;38119;52.710;6.398;2022-07-23T15:26:21;25.10;84.90
52125;DHT22;38119;52.710;6.398;2022-07-23T15:28:52;25.10;85.50
52125;DHT22;38119;52.710;6.398;2022-07-23T15:31:18;25.00;86.00
52125;DHT22;38119;52.710;6.398;2022-07-23T15:33:46;25.10;86.30
52125;DHT22;38119;52.710;6.398;2022-07-23T15:36:11;25.10;87.10
52125;DHT22;38119;52.710;6.398;2022-07-23T15:38:37;25.20;86.70
52125;DHT22;38119;52.710;6.398;2022-07-23T15:41:03;25.30;86.80
52125;DHT22;38119;52.710;6.398;2022-07-23T15:43:29;25.40;86.80
52125;DHT22;38119;52.710;6.398;2022-07-23T15:45:54;25.50;86.50
52125;DHT22;38119;52.710;6.398;2022-07-23T15:48:20;25.60;86.40
52125;DHT22;38119;52.710;6.398;2022-07-23T15:50:46;25.60;86.20
52125;DHT22;38119;52.710;6.398;2022-07-23T15:53:13;25.60;86.20
52125;DHT22;38119;52.710;6.398;2022-07-23T15:55:39;25.70;86.40
52125;DHT22;38119;52.710;6.398;2022-07-23T15:58:06;25.80;86.10
52125;DHT22;38119;52.710;6.398;2022-07-23T16:00:32;25.80;85.80
52125;DHT22;38119;52.710;6.398;2022-07-23T16:02:58;25.80;85.70
52125;DHT22;38119;52.710;6.398;2022-07-23T16:05:23;25.80;85.40
52125;DHT22;38119;52.710;6.398;2022-07-23T16:07:51;25.80;85.00
52125;DHT22;38119;52.710;6.398;2022-07-23T16:10:17;25.80;84.60
52125;DHT22;38119;52.710;6.398;2022-07-23T16:12:43;25.70;84.90
52125;DHT22;38119;52.710;6.398;2022-07-23T16:15:09;25.60;84.60
52125;DHT22;38119;52.710;6.398;2022-07-23T16:17:34;25.60;85.00
52125;DHT22;38119;52.710;6.398;2022-07-23T16:20:00;25.50;85.70
52125;DHT22;38119;52.710;6.398;2022-07-23T16:22:27;25.30;85.70
52125;DHT22;38119;52.710;6.398;2022-07-23T16:24:52;25.30;86.30
52125;DHT22;38119;52.710;6.398;2022-07-23T16:27:18;25.20;86.60